createdAt,value
2022-11-28T00:01:19.823Z,-2.78
2022-11-28T00:03:47.193Z,-2.77
2022-11-28T00:06:14.371Z,-2.80
2022-11-28T00:08:41.527Z,-2.82
2022-11-28T00:11:10.301Z,-3.02
2022-11-28T00:13:37.864Z,-3.00
2022-11-28T00:16:07.601Z,-2.97
2022-11-28T00:18:35.131Z,-2.96
2022-11-28T00:21:07.759Z,-2.90
2022-11-28T00:23:34.580Z,-2.99
2022-11-28T00:26:04.212Z,-3.10
2022-11-28T00:28:31.074Z,-3.20
2022-11-28T00:30:58.164Z,-3.09
2022-11-28T00:33:25.268Z,-3.28
2022-11-28T00:35:52.097Z,-3.42
2022-11-28T00:38:18.676Z,-3.28
2022-11-28T00:40:45.388Z,-3.02
2022-11-28T00:43:12.998Z,-2.90
2022-11-28T00:45:39.807Z,-2.84
2022-11-28T00:48:06.403Z,-3.06
2022-11-28T00:50:33.162Z,-3.10
2022-11-28T00:53:00.234Z,-3.09
2022-11-28T00:55:27.219Z,-3.07
2022-11-28T00:57:55.339Z,-2.98
2022-11-28T01:00:22.155Z,-2.91
2022-11-28T01:02:48.805Z,-3.00
2022-11-28T01:05:15.569Z,-3.00
2022-11-28T01:07:42.385Z,-2.96
2022-11-28T01:10:11.405Z,-2.86
2022-11-28T01:12:39.958Z,-2.83
2022-11-28T01:15:09.343Z,-2.92
2022-11-28T01:17:36.435Z,-2.86
2022-11-28T01:20:05.244Z,-2.76
2022-11-28T01:22:32.225Z,-2.71
2022-11-28T01:24:58.908Z,-2.78
2022-11-28T01:27:25.612Z,-2.68
2022-11-28T01:29:52.508Z,-2.58
2022-11-28T01:32:19.182Z,-2.66
2022-11-28T01:34:45.815Z,-2.58
2022-11-28T01:37:12.614Z,-2.59
2022-11-28T01:39:39.204Z,-2.49
2022-11-28T01:42:05.868Z,-2.33
2022-11-28T01:44:32.664Z,-2.05
2022-11-28T01:46:59.320Z,-2.05
2022-11-28T01:49:30.577Z,-2.01
2022-11-28T01:52:03.327Z,-1.77
2022-11-28T01:54:31.872Z,-1.75
2022-11-28T01:57:02.914Z,-1.61
2022-11-28T01:59:33.972Z,-1.53
2022-11-28T02:02:02.126Z,-1.54
2022-11-28T02:04:29.048Z,-1.58
2022-11-28T02:06:55.719Z,-1.50
2022-11-28T02:09:22.712Z,-1.51
2022-11-28T02:12:15.266Z,-1.48
2022-11-28T02:15:03.282Z,-1.40
2022-11-28T02:17:48.524Z,-1.50
2022-11-28T02:20:53.109Z,-1.41
2022-11-28T02:23:48.006Z,-1.63
2022-11-28T02:26:23.627Z,-1.40
2022-11-28T02:28:59.087Z,-1.33
2022-11-28T02:32:03.346Z,-1.43
2022-11-28T02:34:57.067Z,-1.32
2022-11-28T02:37:45.349Z,-1.39
2022-11-28T02:40:32.470Z,-1.51
2022-11-28T02:43:10.157Z,-1.35
2022-11-28T02:46:11.253Z,-1.37
2022-11-28T02:48:56.126Z,-1.45
2022-11-28T02:51:26.003Z,-1.67
2022-11-28T02:53:55.220Z,-1.78
2022-11-28T02:56:24.423Z,-1.67
2022-11-28T02:58:51.536Z,-1.63
2022-11-28T03:01:27.720Z,-1.41
2022-11-28T03:03:54.530Z,-1.53
2022-11-28T03:06:27.298Z,-1.54
2022-11-28T03:09:13.910Z,-1.78
2022-11-28T03:12:18.405Z,-2.07
2022-11-28T03:14:52.508Z,-2.15
2022-11-28T03:17:26.604Z,-2.24
2022-11-28T03:20:13.304Z,-2.17
2022-11-28T03:23:16.406Z,-2.13
2022-11-28T03:26:00.507Z,-2.02
2022-11-28T03:28:47.224Z,-2.21
2022-11-28T03:31:24.544Z,-2.41
2022-11-28T03:33:55.798Z,-2.41
2022-11-28T03:36:27.824Z,-2.38
2022-11-28T03:39:00.908Z,-2.18
2022-11-28T03:42:04.992Z,-2.22
2022-11-28T03:44:44.647Z,-2.29
2022-11-28T03:47:11.846Z,-2.41
2022-11-28T03:49:40.572Z,-2.40
2022-11-28T03:52:12.179Z,-2.21
2022-11-28T03:54:41.924Z,-2.08
2022-11-28T03:57:19.670Z,-2.06
2022-11-28T03:59:54.146Z,-1.88
2022-11-28T04:02:30.995Z,-2.41
2022-11-28T04:05:09.105Z,-2.28
2022-11-28T04:07:42.929Z,-1.75
2022-11-28T04:10:26.652Z,-1.40
2022-11-28T04:12:57.318Z,-1.27
2022-11-28T04:15:37.463Z,-1.34
2022-11-28T04:18:10.226Z,-1.30
2022-11-28T04:20:48.063Z,-1.13
2022-11-28T04:23:18.279Z,-0.96
2022-11-28T04:26:11.869Z,-0.95
2022-11-28T04:28:40.737Z,-0.92
2022-11-28T04:31:18.861Z,-0.87
2022-11-28T04:33:50.711Z,-0.80
2022-11-28T04:36:20.106Z,-1.32
2022-11-28T04:38:56.089Z,-1.24
2022-11-28T04:41:46.663Z,-0.87
2022-11-28T04:44:33.242Z,-1.02
2022-11-28T04:47:00.001Z,-0.74
2022-11-28T04:49:29.207Z,-0.60
2022-11-28T04:52:07.732Z,-0.57
2022-11-28T04:54:46.904Z,-0.52
2022-11-28T04:57:30.558Z,-0.49
2022-11-28T04:59:58.305Z,-0.46
2022-11-28T05:02:25.870Z,-0.45
2022-11-28T05:04:55.911Z,-0.29
2022-11-28T05:07:24.933Z,-0.51
2022-11-28T05:09:51.874Z,-0.52
2022-11-28T05:12:18.607Z,-0.26
2022-11-28T05:14:45.378Z,-0.03
2022-11-28T05:17:13.497Z,0.07
2022-11-28T05:19:40.195Z,0.08
2022-11-28T05:22:06.899Z,0.11
2022-11-28T05:24:33.617Z,0.11
2022-11-28T05:27:00.722Z,0.26
2022-11-28T05:29:27.406Z,0.16
2022-11-28T05:31:54.176Z,0.21
2022-11-28T05:34:21.027Z,0.26
2022-11-28T05:36:47.558Z,0.45
2022-11-28T05:39:15.036Z,0.38
2022-11-28T05:41:41.651Z,0.31
2022-11-28T05:44:10.224Z,0.32
2022-11-28T05:46:36.845Z,0.35
2022-11-28T05:49:03.612Z,0.28
2022-11-28T05:51:30.079Z,0.33
2022-11-28T05:53:56.832Z,0.22
2022-11-28T05:56:23.556Z,0.27
2022-11-28T05:58:50.659Z,0.35
2022-11-28T06:01:24.399Z,0.33
2022-11-28T06:03:52.399Z,0.04
2022-11-28T06:06:21.789Z,0.35
2022-11-28T06:08:49.908Z,0.44
2022-11-28T06:11:17.068Z,0.37
2022-11-28T06:13:45.547Z,0.31
2022-11-28T06:16:16.974Z,0.36
2022-11-28T06:18:44.484Z,0.40
2022-11-28T06:21:12.753Z,0.38
2022-11-28T06:23:41.152Z,0.46
2022-11-28T06:26:11.436Z,0.43
2022-11-28T06:28:39.299Z,0.65
2022-11-28T06:31:13.961Z,0.51
2022-11-28T06:33:41.717Z,0.34
2022-11-28T06:36:10.498Z,0.30
2022-11-28T06:38:38.264Z,0.58
2022-11-28T06:41:11.411Z,0.78
2022-11-28T06:43:38.598Z,0.49
2022-11-28T06:46:05.426Z,0.55
2022-11-28T06:48:32.556Z,0.50
2022-11-28T06:51:04.521Z,0.45
2022-11-28T06:53:31.750Z,0.63
2022-11-28T06:55:58.699Z,0.83
2022-11-28T06:58:25.440Z,0.75
2022-11-28T07:00:52.148Z,0.82
2022-11-28T07:03:18.846Z,0.83
2022-11-28T07:05:45.693Z,0.76
2022-11-28T07:08:12.384Z,0.87
2022-11-28T07:10:39.391Z,0.84
2022-11-28T07:13:06.023Z,0.93
2022-11-28T07:15:32.695Z,1.08
2022-11-28T07:17:59.298Z,1.24
2022-11-28T07:20:25.910Z,1.31
2022-11-28T07:22:52.914Z,1.34
2022-11-28T07:25:19.684Z,1.29
2022-11-28T07:27:46.283Z,1.46
2022-11-28T07:30:13.351Z,1.41
2022-11-28T07:32:41.123Z,1.40
2022-11-28T07:35:09.038Z,1.41
2022-11-28T07:37:36.515Z,1.37
2022-11-28T07:40:04.277Z,1.40
2022-11-28T07:42:30.891Z,1.33
2022-11-28T07:45:04.279Z,1.39
2022-11-28T07:47:34.859Z,1.41
2022-11-28T07:50:01.541Z,1.38
2022-11-28T07:52:28.165Z,1.37
2022-11-28T07:54:55.240Z,1.45
2022-11-28T07:57:22.495Z,1.35
2022-11-28T07:59:49.119Z,1.38
2022-11-28T08:02:16.068Z,1.41
2022-11-28T08:04:48.599Z,1.54
2022-11-28T08:07:17.255Z,1.56
2022-11-28T08:09:44.175Z,1.57
2022-11-28T08:12:12.261Z,1.64
2022-11-28T08:14:38.980Z,1.61
2022-11-28T08:17:05.685Z,1.39
2022-11-28T08:19:35.398Z,1.53
2022-11-28T08:22:02.334Z,1.13
2022-11-28T08:24:28.893Z,1.36
2022-11-28T08:26:55.439Z,1.12
2022-11-28T08:29:22.149Z,1.50
2022-11-28T08:31:48.792Z,1.63
2022-11-28T08:34:15.528Z,1.55
2022-11-28T08:36:43.533Z,1.29
2022-11-28T08:39:27.536Z,1.18
2022-11-28T08:41:59.878Z,1.71
2022-11-28T08:44:30.234Z,1.65
2022-11-28T08:46:57.314Z,1.81
2022-11-28T08:49:23.851Z,1.83
2022-11-28T08:51:51.246Z,1.84
2022-11-28T08:54:17.861Z,1.93
2022-11-28T08:56:46.821Z,1.92
2022-11-28T08:59:13.779Z,1.97
2022-11-28T09:01:41.035Z,1.92
2022-11-28T09:04:07.966Z,1.89
2022-11-28T09:06:34.674Z,1.73
2022-11-28T09:09:03.008Z,1.90
2022-11-28T09:11:29.753Z,1.90
2022-11-28T09:13:56.833Z,2.13
2022-11-28T09:16:23.562Z,2.34
2022-11-28T09:18:54.885Z,2.41
2022-11-28T09:21:21.753Z,1.72
2022-11-28T09:23:48.345Z,1.96
2022-11-28T09:26:20.174Z,1.99
2022-11-28T09:28:48.223Z,2.07
2022-11-28T09:31:16.968Z,2.28
2022-11-28T09:33:44.265Z,2.34
2022-11-28T09:36:13.784Z,2.53
2022-11-28T09:38:40.500Z,2.20
2022-11-28T09:41:25.898Z,2.42
2022-11-28T09:43:55.732Z,2.30
2022-11-28T09:46:28.792Z,2.43
2022-11-28T09:49:00.539Z,2.19
2022-11-28T09:51:55.347Z,2.24
2022-11-28T09:54:50.212Z,2.03
2022-11-28T09:57:29.782Z,1.92
2022-11-28T09:59:56.459Z,2.18
2022-11-28T10:02:39.834Z,2.30
2022-11-28T10:05:20.656Z,2.27
2022-11-28T10:07:55.105Z,2.29
2022-11-28T10:10:31.138Z,3.03
2022-11-28T10:12:57.782Z,2.89
2022-11-28T10:15:33.597Z,2.69
2022-11-28T10:18:33.328Z,2.79
2022-11-28T10:21:12.922Z,3.11
2022-11-28T10:23:45.395Z,3.24
2022-11-28T10:26:25.707Z,2.75
2022-11-28T10:28:55.598Z,2.78
2022-11-28T10:31:33.575Z,2.74
2022-11-28T10:34:09.626Z,2.92
2022-11-28T10:37:02.370Z,2.99
2022-11-28T10:39:29.124Z,3.10
2022-11-28T10:42:11.903Z,3.15
2022-11-28T10:44:44.513Z,2.97
2022-11-28T10:47:20.129Z,3.33
2022-11-28T10:50:05.829Z,3.33
2022-11-28T10:52:49.618Z,3.68
2022-11-28T10:55:58.510Z,3.82
2022-11-28T10:58:37.124Z,3.81
2022-11-28T11:01:04.613Z,3.90
2022-11-28T11:03:35.784Z,3.51
2022-11-28T11:06:03.106Z,3.42
2022-11-28T11:08:34.970Z,3.58
2022-11-28T11:11:04.525Z,3.35
2022-11-28T11:13:55.641Z,3.51
2022-11-28T11:16:22.963Z,3.17
2022-11-28T11:18:49.547Z,3.37
2022-11-28T11:21:25.037Z,3.79
2022-11-28T11:24:27.050Z,3.44
2022-11-28T11:27:02.415Z,3.66
2022-11-28T11:29:29.102Z,4.12
2022-11-28T11:31:55.873Z,4.29
2022-11-28T11:34:24.326Z,4.05
2022-11-28T11:36:51.717Z,3.82
2022-11-28T11:39:25.667Z,4.16
2022-11-28T11:42:11.518Z,4.26
2022-11-28T11:44:38.154Z,4.18
2022-11-28T11:47:06.481Z,3.69
2022-11-28T11:49:37.227Z,3.71
2022-11-28T11:52:15.027Z,3.71
2022-11-28T11:54:58.458Z,3.93
2022-11-28T11:57:44.371Z,3.76
2022-11-28T12:00:20.998Z,3.53
2022-11-28T12:02:54.090Z,3.30
2022-11-28T12:05:28.458Z,3.64
2022-11-28T12:08:02.322Z,3.37
2022-11-28T12:10:34.651Z,3.20
2022-11-28T12:13:04.833Z,3.60
2022-11-28T12:15:45.423Z,3.51
2022-11-28T12:18:35.906Z,3.60
2022-11-28T12:21:19.071Z,3.76
2022-11-28T12:24:10.034Z,3.85
2022-11-28T12:26:43.071Z,3.36
2022-11-28T12:29:38.539Z,3.29
2022-11-28T12:32:36.294Z,3.52
2022-11-28T12:35:42.782Z,4.05
2022-11-28T12:38:24.788Z,3.97
2022-11-28T12:41:16.280Z,3.93
2022-11-28T12:43:57.957Z,4.00
2022-11-28T12:46:49.257Z,4.00
2022-11-28T12:49:22.978Z,3.59
2022-11-28T12:52:31.561Z,3.52
2022-11-28T12:55:04.244Z,3.79
2022-11-28T12:57:45.359Z,3.34
2022-11-28T13:00:25.250Z,3.52
2022-11-28T13:03:26.279Z,4.14
2022-11-28T13:06:05.138Z,3.79
2022-11-28T13:08:49.377Z,3.89
2022-11-28T13:11:22.125Z,3.86
2022-11-28T13:13:59.087Z,4.02
2022-11-28T13:16:48.101Z,4.23
2022-11-28T13:19:33.252Z,4.43
2022-11-28T13:22:23.443Z,3.87
2022-11-28T13:25:07.025Z,3.72
2022-11-28T13:27:56.699Z,3.45
2022-11-28T13:30:26.044Z,3.67
2022-11-28T13:33:16.718Z,3.53
2022-11-28T13:35:46.463Z,3.70
2022-11-28T13:38:42.533Z,3.92
2022-11-28T13:42:09.654Z,3.58
2022-11-28T13:44:49.883Z,4.10
2022-11-28T13:47:22.486Z,3.74
2022-11-28T13:49:49.613Z,4.18
2022-11-28T13:52:19.175Z,4.50
2022-11-28T13:54:53.855Z,4.37
2022-11-28T13:57:29.722Z,4.23
2022-11-28T14:00:06.897Z,3.81
2022-11-28T14:02:46.498Z,3.74
2022-11-28T14:05:37.176Z,4.03
2022-11-28T14:08:05.611Z,3.73
2022-11-28T14:10:49.585Z,3.87
2022-11-28T14:13:44.124Z,4.32
2022-11-28T14:16:54.517Z,4.31
2022-11-28T14:19:30.440Z,4.19
2022-11-28T14:22:22.405Z,4.24
2022-11-28T14:25:01.175Z,4.29
2022-11-28T14:27:36.247Z,4.21
2022-11-28T14:30:07.655Z,4.29
2022-11-28T14:32:36.611Z,4.39
2022-11-28T14:35:06.788Z,4.12
2022-11-28T14:37:47.779Z,4.27
2022-11-28T14:40:53.394Z,4.31
2022-11-28T14:43:43.838Z,4.38
2022-11-28T14:46:22.254Z,4.35
2022-11-28T14:48:58.244Z,4.31
2022-11-28T14:52:00.039Z,4.26
2022-11-28T14:54:42.479Z,4.30
2022-11-28T14:57:16.718Z,4.29
2022-11-28T14:59:43.956Z,4.31
2022-11-28T15:02:11.006Z,4.27
2022-11-28T15:04:50.040Z,4.23
2022-11-28T15:07:50.221Z,4.21
2022-11-28T15:10:52.967Z,4.19
2022-11-28T15:13:20.034Z,4.28
2022-11-28T15:15:51.900Z,4.31
2022-11-28T15:18:25.240Z,4.12
2022-11-28T15:21:03.277Z,4.07
2022-11-28T15:23:31.996Z,4.14
2022-11-28T15:26:00.210Z,4.38
2022-11-28T15:28:28.937Z,4.32
2022-11-28T15:30:57.680Z,4.36
2022-11-28T15:33:26.402Z,4.43
2022-11-28T15:36:20.858Z,4.42
2022-11-28T15:38:48.502Z,4.50
2022-11-28T15:41:21.249Z,4.51
2022-11-28T15:43:48.228Z,4.41
2022-11-28T15:46:21.037Z,4.38
2022-11-28T15:48:50.139Z,4.36
2022-11-28T15:51:32.693Z,4.29
2022-11-28T15:54:00.523Z,4.25
2022-11-28T15:56:27.466Z,4.29
2022-11-28T15:58:54.409Z,4.22
2022-11-28T16:01:24.024Z,4.38
2022-11-28T16:03:59.642Z,4.16
2022-11-28T16:06:36.618Z,4.26
2022-11-28T16:09:29.470Z,4.22
2022-11-28T16:11:56.515Z,4.06
2022-11-28T16:14:40.558Z,3.99
2022-11-28T16:17:23.801Z,3.24
2022-11-28T16:19:53.974Z,3.42
2022-11-28T16:22:27.289Z,3.74
2022-11-28T16:24:55.995Z,4.06
2022-11-28T16:27:29.199Z,4.13
2022-11-28T16:29:56.378Z,4.04
2022-11-28T16:32:37.934Z,4.07
2022-11-28T16:35:06.111Z,4.06
2022-11-28T16:37:33.361Z,3.80
2022-11-28T16:40:06.777Z,3.47
2022-11-28T16:42:35.458Z,3.84
2022-11-28T16:45:21.220Z,3.80
2022-11-28T16:47:55.827Z,4.06
2022-11-28T16:50:23.940Z,4.25
2022-11-28T16:53:00.262Z,4.29
2022-11-28T16:55:38.242Z,4.28
2022-11-28T16:58:21.178Z,4.32
2022-11-28T17:00:59.340Z,4.28
2022-11-28T17:03:42.213Z,4.34
2022-11-28T17:06:18.239Z,4.05
2022-11-28T17:08:45.329Z,3.08
2022-11-28T17:11:13.791Z,3.63
2022-11-28T17:13:40.616Z,4.10
2022-11-28T17:16:16.218Z,4.24
2022-11-28T17:18:43.841Z,4.37
2022-11-28T17:21:12.417Z,4.32
2022-11-28T17:23:40.965Z,4.33
2022-11-28T17:26:08.534Z,4.29
2022-11-28T17:28:35.280Z,4.17
2022-11-28T17:31:01.894Z,4.08
2022-11-28T17:33:28.590Z,4.07
2022-11-28T17:35:56.251Z,4.05
2022-11-28T17:38:22.936Z,3.93
2022-11-28T17:40:49.457Z,4.05
2022-11-28T17:43:18.279Z,4.07
2022-11-28T17:45:45.749Z,4.06
2022-11-28T17:48:18.999Z,3.98
2022-11-28T17:50:50.605Z,4.10
2022-11-28T17:53:19.603Z,4.07
2022-11-28T17:55:48.864Z,4.10
2022-11-28T17:58:23.936Z,4.01
2022-11-28T18:00:53.943Z,4.10
2022-11-28T18:03:29.241Z,3.93
2022-11-28T18:05:55.923Z,3.95
2022-11-28T18:08:22.911Z,3.78
2022-11-28T18:10:50.780Z,3.76
2022-11-28T18:13:18.059Z,3.77
2022-11-28T18:15:47.552Z,3.57
2022-11-28T18:18:15.551Z,3.82
2022-11-28T18:20:42.582Z,3.70
2022-11-28T18:23:10.488Z,3.59
2022-11-28T18:25:41.686Z,3.70
2022-11-28T18:28:08.420Z,3.28
2022-11-28T18:30:35.107Z,2.96
2022-11-28T18:33:01.928Z,3.44
2022-11-28T18:35:28.636Z,3.13
2022-11-28T18:37:55.578Z,3.29
2022-11-28T18:40:22.185Z,3.08
2022-11-28T18:42:48.838Z,3.27
2022-11-28T18:45:15.622Z,3.49
2022-11-28T18:47:42.547Z,3.51
2022-11-28T18:50:09.540Z,3.54
2022-11-28T18:52:36.303Z,3.63
2022-11-28T18:55:04.114Z,3.66
2022-11-28T18:57:34.709Z,3.64
2022-11-28T19:00:02.132Z,3.53
2022-11-28T19:02:29.460Z,3.69
2022-11-28T19:04:56.882Z,3.83
2022-11-28T19:07:24.873Z,3.84
2022-11-28T19:09:52.554Z,3.79
2022-11-28T19:12:20.372Z,3.92
2022-11-28T19:14:47.045Z,3.88
2022-11-28T19:17:14.184Z,3.85
2022-11-28T19:19:41.385Z,3.97
2022-11-28T19:22:08.383Z,3.77
2022-11-28T19:24:35.202Z,3.77
2022-11-28T19:27:01.956Z,3.68
2022-11-28T19:29:28.531Z,3.84
2022-11-28T19:31:55.580Z,3.82
2022-11-28T19:34:23.064Z,3.84
2022-11-28T19:36:51.160Z,3.86
2022-11-28T19:39:19.858Z,3.84
2022-11-28T19:41:47.391Z,3.76
2022-11-28T19:44:14.980Z,3.36
2022-11-28T19:46:42.805Z,3.46
2022-11-28T19:49:19.337Z,3.57
2022-11-28T19:51:47.171Z,3.60
2022-11-28T19:54:15.247Z,3.61
2022-11-28T19:56:42.193Z,3.73
2022-11-28T19:59:10.635Z,3.91
2022-11-28T20:01:38.958Z,3.94
2022-11-28T20:04:06.018Z,3.88
2022-11-28T20:06:34.106Z,3.75
2022-11-28T20:09:07.333Z,3.61
2022-11-28T20:11:37.740Z,3.59
2022-11-28T20:14:06.969Z,3.46
2022-11-28T20:16:35.835Z,3.53
2022-11-28T20:19:05.817Z,3.56
2022-11-28T20:21:34.264Z,3.57
2022-11-28T20:24:07.343Z,3.62
2022-11-28T20:26:38.831Z,3.75
2022-11-28T20:29:06.249Z,3.68
2022-11-28T20:31:42.056Z,3.70
2022-11-28T20:34:08.945Z,3.66
2022-11-28T20:36:36.336Z,3.58
2022-11-28T20:39:04.658Z,3.61
2022-11-28T20:41:31.324Z,3.58
2022-11-28T20:44:01.946Z,3.57
2022-11-28T20:46:31.023Z,3.55
2022-11-28T20:48:59.886Z,3.52
2022-11-28T20:51:28.913Z,3.54
2022-11-28T20:53:57.989Z,3.41
2022-11-28T20:56:27.814Z,3.47
2022-11-28T20:58:54.700Z,3.50
2022-11-28T21:01:24.707Z,3.56
2022-11-28T21:03:52.403Z,3.58
2022-11-28T21:06:19.641Z,3.64
2022-11-28T21:08:46.757Z,3.71
2022-11-28T21:11:30.976Z,3.81
2022-11-28T21:14:04.949Z,3.88
2022-11-28T21:16:33.286Z,3.93
2022-11-28T21:19:07.633Z,4.13
2022-11-28T21:21:37.184Z,4.17
2022-11-28T21:24:12.547Z,4.05
2022-11-28T21:26:53.859Z,4.00
2022-11-28T21:29:22.208Z,3.97
2022-11-28T21:31:49.094Z,4.02
2022-11-28T21:34:16.758Z,3.89
2022-11-28T21:36:44.192Z,3.82
2022-11-28T21:39:14.042Z,3.62
2022-11-28T21:41:40.996Z,2.75
2022-11-28T21:44:08.193Z,2.72
2022-11-28T21:46:34.860Z,3.10
2022-11-28T21:49:01.984Z,3.16
2022-11-28T21:51:28.845Z,3.32
2022-11-28T21:53:57.598Z,3.04
2022-11-28T21:56:24.991Z,2.99
2022-11-28T21:58:52.428Z,2.55
2022-11-28T22:01:20.353Z,3.12
2022-11-28T22:03:49.116Z,2.73
2022-11-28T22:06:21.842Z,2.88
2022-11-28T22:08:49.132Z,2.85
2022-11-28T22:11:16.521Z,3.54
2022-11-28T22:13:47.168Z,3.76
2022-11-28T22:16:18.809Z,3.87
2022-11-28T22:18:47.383Z,3.90
2022-11-28T22:21:49.977Z,3.71
2022-11-28T22:24:03.330Z,3.62
2022-11-28T22:26:30.045Z,3.55
2022-11-28T22:28:58.905Z,3.12
2022-11-28T22:31:25.909Z,3.19
2022-11-28T22:33:52.864Z,3.06
2022-11-28T22:36:21.579Z,3.07
2022-11-28T22:38:49.540Z,3.17
2022-11-28T22:41:27.625Z,3.51
2022-11-28T22:43:57.312Z,3.56
2022-11-28T22:46:24.353Z,3.61
2022-11-28T22:48:51.947Z,3.66
2022-11-28T22:51:21.822Z,3.51
2022-11-28T22:53:52.834Z,3.69
2022-11-28T22:56:19.538Z,3.47
2022-11-28T22:58:46.583Z,3.30
2022-11-28T23:01:17.396Z,2.77
2022-11-28T23:03:45.448Z,2.46
2022-11-28T23:06:19.382Z,2.67
2022-11-28T23:08:46.817Z,2.78
2022-11-28T23:11:17.722Z,2.91
2022-11-28T23:13:45.526Z,3.09
2022-11-28T23:16:28.079Z,2.88
2022-11-28T23:18:58.078Z,2.94
2022-11-28T23:21:28.344Z,2.58
2022-11-28T23:23:55.564Z,2.87
2022-11-28T23:26:24.902Z,2.86
2022-11-28T23:28:53.527Z,3.12
2022-11-28T23:31:23.249Z,3.22
2022-11-28T23:33:50.676Z,3.38
2022-11-28T23:36:29.830Z,3.01
2022-11-28T23:39:01.061Z,3.09
2022-11-28T23:41:29.794Z,3.14
2022-11-28T23:43:57.214Z,3.01
2022-11-28T23:46:25.101Z,2.97
2022-11-28T23:48:52.168Z,3.30
2022-11-28T23:51:21.895Z,2.69
2022-11-28T23:53:50.000Z,2.65
2022-11-28T23:56:23.148Z,2.00
2022-11-28T23:58:50.983Z,2.21
